Latest Weather Observations for Parkes Airport

IDN60801

Issued at 10:03 pm EST Friday 3 July 2015 (issued every 30 minutes, with the page automatically refreshed every 10 minutes)

About weather observations | Map of weather stations | Latest weather observations for NSW | Other Formats
Station Details ID: 065068 Name: PARKES AIRPORT AWS Lat: -33.13 Lon: 148.24 Height: 323.3 m
Data from the previous 72 hours. | See also: Recent months at Parkes Airport
Date/Time
EST
Temp
°C
App
Temp
°C
Dew
Point
Rel
Hum
%
Delta-T
°C
Wind Press
QNH
hPa
Press
MSL
hPa
Rain
since 9 am
mm
Dir
 
Spd
km/h
Gust
km/h
Spd
kts
Gust
kts
03/10:00pm -2.1 -6.7 -3.8 88 0.5 ENE 11 13 6 7 1026.5 1027.1 0.0
03/09:30pm -1.7 -6.3 -3.7 86 0.6 ENE 11 13 6 7 1026.5 1027.1 0.0
03/09:00pm -1.2 -5.0 -3.5 84 0.7 NE 7 11 4 6 1026.7 1027.3 0.0
03/08:30pm 0.1 -4.7 -2.8 81 1.0 E 13 15 7 8 1026.5 1027.1 0.0
03/08:00pm 0.3 -3.3 -2.2 83 0.9 E 7 13 4 7 1026.6 1027.2 0.0
03/07:30pm -0.1 -2.6 -4.2 74 1.4 CALM 0 0 0 0 1026.3 1026.9 0.0
03/07:00pm 2.6 0.3 -2.1 71 1.7 CALM 0 0 0 0 1026.3 1026.9 0.0
03/06:30pm 3.6 1.3 -2.3 65 2.1 CALM 0 0 0 0 1026.2 1026.8 0.0
03/06:00pm 6.0 3.8 -1.9 57 2.9 CALM 0 0 0 0 1026.2 1026.8 0.0
03/05:30pm 6.2 3.1 -2.7 53 3.3 SW 4 7 2 4 1026.0 1026.6 0.0
03/05:00pm 8.2 4.1 -2.7 46 4.1 WNW 9 11 5 6 1025.7 1026.3 0.0
03/04:30pm 10.8 6.5 -1.9 41 5.0 WNW 11 13 6 7 1025.6 1026.2 0.0
03/04:00pm 11.9 7.1 -2.7 36 5.7 NW 13 17 7 9 1025.4 1025.9 0.0
03/03:30pm 12.2 7.7 -3.2 34 6.0 W 11 19 6 10 1025.2 1025.7 0.0
03/03:00pm 12.6 8.2 -2.1 36 5.9 NNW 11 19 6 10 1025.1 1025.6 0.0
03/02:30pm 12.8 8.8 -2.3 35 6.0 NW 9 15 5 8 1025.1 1025.6 0.0
03/02:00pm 12.6 9.1 -1.0 39 5.6 N 7 15 4 8 1025.3 1025.8 0.0
03/01:30pm 12.4 9.2 -0.8 40 5.4 NNW 6 19 3 10 1025.5 1026.1 0.0
03/01:00pm 11.3 7.9 -0.8 43 4.9 WNW 7 13 4 7 1026.0 1026.6 0.0
03/12:30pm 11.5 9.1 -0.6 43 5.0 N 2 9 1 5 1026.5 1027.1 0.0
03/12:00pm 10.4 7.7 0.2 49 4.2 W 4 9 2 5 1026.9 1027.5 0.0
03/11:30am 9.5 7.1 1.9 59 3.2 WSW 4 11 2 6 1027.6 1028.1 0.0
03/11:00am 8.9 7.4 2.9 66 2.6 CALM 0 6 0 3 1027.9 1028.4 0.0
03/10:30am 7.8 5.5 2.9 71 2.1 NNE 4 7 2 4 1028.2 1028.8 0.0
03/10:00am 5.2 3.5 2.0 80 1.3 CALM 0 0 0 0 1028.4 1029.0 0.0
03/09:30am 4.4 2.7 1.9 84 1.0 CALM 0 0 0 0 1028.3 1028.9 0.0
03/09:00am 1.9 -1.4 0.4 90 0.6 ENE 7 9 4 5 1028.2 1028.8 0.0
03/08:30am -0.5 -3.8 -1.2 95 0.2 ENE 6 7 3 4 1028.0 1028.5 0.0
03/08:00am -2.9 -6.7 -3.6 95 0.1 SSE 7 11 4 6 1027.7 1028.2 0.0
03/07:30am -4.7 -7.8 -5.7 93 0.1 ESE 2 7 1 4 1027.6 1028.1 0.0
03/07:00am -4.8 -8.8 -5.8 93 0.1 ENE 7 9 4 5 1027.2 1027.7 0.0
03/06:30am -3.6 -7.4 -4.1 96 0.0 ENE 7 11 4 6 1026.9 1027.5 0.0
03/06:00am -4.5 -9.2 -5.3 94 0.1 ENE 11 11 6 6 1026.7 1027.3 0.0
03/05:30am -4.8 -9.2 -5.8 93 0.1 ENE 9 11 5 6 1026.3 1026.9 0.0
03/05:00am -4.0 -7.8 -5.1 92 0.2 N 6 7 3 4 1026.0 1026.6 0.0
03/04:30am -3.5 -6.8 -4.3 94 0.1 E 4 7 2 4 1025.7 1026.3 0.0
03/04:00am -3.4 -7.1 -4.4 93 0.2 E 6 7 3 4 1025.5 1026.1 0.0
03/03:30am -3.2 -6.1 -4.3 92 0.2 E 2 6 1 3 1025.7 1026.3 0.0
03/03:00am -2.6 -7.2 -3.7 92 0.2 E 11 13 6 7 1025.8 1026.4 0.0
03/02:30am -2.5 -6.3 -3.8 91 0.3 ENE 7 15 4 8 1025.9 1026.5 0.0
03/02:00am -0.7 -4.2 -1.5 94 0.2 ENE 7 9 4 5 1026.2 1026.8 0.0
03/01:30am -0.4 -4.0 -2.1 88 0.6 SW 7 7 4 4 1026.2 1026.8 0.0
03/01:00am -0.9 -3.2 -2.3 90 0.4 CALM 0 0 0 0 1026.3 1026.9 0.0
03/12:30am -0.3 -3.7 -1.9 89 0.5 S 6 9 3 5 1026.3 1026.9 0.0
03/12:00am 1.4 -3.1 -0.2 89 0.6 W 13 13 7 7 1026.2 1026.8 0.0
 
Date/Time
EST
Temp
°C
App
Temp
°C
Dew
Point
Rel
Hum
%
Delta-T
°C
Wind Press
QNH
hPa
Press
MSL
hPa
Rain
since 9 am
mm
Dir
 
Spd
km/h
Gust
km/h
Spd
kts
Gust
kts
02/11:30pm 3.0 -1.4 0.2 82 1.1 S 13 17 7 9 1026.3 1026.9 0.0
02/11:00pm 1.9 -2.6 -0.5 84 0.9 S 13 17 7 9 1026.3 1026.9 0.0
02/10:30pm 2.7 -1.7 0.6 86 0.8 SSW 13 15 7 8 1026.3 1026.9 0.0
02/10:00pm 3.6 -0.3 1.3 85 0.9 SSW 11 15 6 8 1026.1 1026.7 0.0
02/09:30pm 4.5 -0.4 2.2 85 0.9 SSW 17 19 9 10 1026.0 1026.6 0.0
02/09:00pm 5.1 0.4 3.3 88 0.8 SSW 17 20 9 11 1025.9 1026.5 0.0
02/08:30pm 5.3 0.7 3.5 88 0.8 SSW 17 20 9 11 1025.8 1026.4 0.0
02/08:00pm 5.9 2.1 4.1 88 0.8 SW 13 15 7 8 1025.2 1025.7 0.0
02/07:30pm 6.0 1.9 4.5 90 0.7 SSW 15 19 8 10 1025.0 1025.5 0.0
02/07:00pm 5.5 2.4 3.5 87 0.8 SSW 9 13 5 7 1024.7 1025.2 0.0
02/06:30pm 7.1 2.7 4.6 84 1.1 SW 17 20 9 11 1024.7 1025.2 0.0
02/06:00pm 8.1 3.7 5.0 81 1.4 SW 17 20 9 11 1024.4 1024.9 0.0
02/05:30pm 9.2 4.4 5.4 77 1.8 SW 20 26 11 14 1024.0 1024.5 0.0
02/05:00pm 10.2 4.6 5.4 72 2.2 WSW 24 32 13 17 1023.6 1024.2 0.0
02/04:30pm 10.9 4.5 5.4 69 2.6 WSW 28 37 15 20 1023.1 1023.7 0.0
02/04:00pm 11.4 5.9 5.7 68 2.7 WSW 24 32 13 17 1022.8 1023.3 0.0
02/03:30pm 11.1 4.2 4.6 64 3.0 WSW 30 35 16 19 1023.1 1023.7 0.0
02/03:00pm 11.4 5.6 4.2 61 3.3 W 24 32 13 17 1022.5 1023.0 0.0
02/02:30pm 12.6 6.9 4.8 59 3.6 W 24 33 13 18 1022.6 1023.1 0.0
02/02:00pm 11.7 5.8 4.0 59 3.5 W 24 35 13 19 1022.6 1023.1 0.0
02/01:30pm 11.1 5.1 3.6 60 3.4 WSW 24 32 13 17 1023.0 1023.6 0.0
02/01:00pm 10.9 6.3 3.7 61 3.2 WSW 17 24 9 13 1023.4 1024.0 0.0
02/12:30pm 9.8 5.0 2.6 61 3.1 W 17 20 9 11 1024.1 1024.6 0.0
02/12:00pm 9.4 4.7 3.2 65 2.7 WSW 17 24 9 13 1024.7 1025.2 0.0
02/11:30am 9.2 5.3 3.4 67 2.6 WSW 13 20 7 11 1025.1 1025.6 0.0
02/11:00am 7.9 5.2 3.8 75 1.8 WSW 7 11 4 6 1025.3 1025.8 0.0
02/10:30am 6.8 3.3 3.6 80 1.4 SW 11 15 6 8 1025.8 1026.4 0.0
02/10:00am 6.1 3.4 3.9 86 0.9 SSW 7 11 4 6 1025.9 1026.5 0.0
02/09:30am 4.5 3.1 3.6 94 0.4 CALM 0 4 0 2 1025.9 1026.5 0.0
02/09:00am 2.3 0.6 2.0 98 0.1 CALM 0 4 0 2 1025.5 1026.1 0.2
02/08:30am -0.7 -3.2 -1.1 97 0.1 NNE 2 6 1 3 1025.2 1025.7 0.0
02/08:00am -1.3 -4.9 -1.9 96 0.1 NE 7 9 4 5 1025.0 1025.5 0.0
02/07:30am -1.5 -5.1 -2.1 96 0.1 NE 7 9 4 5 1024.9 1025.4 0.0
02/07:00am -1.3 -5.3 -1.9 96 0.1 ENE 9 11 5 6 1024.6 1025.1 0.0
02/06:30am -0.9 -4.4 -1.3 97 0.1 ENE 7 7 4 4 1024.5 1025.0 0.0
02/06:00am -0.6 -4.4 -1.0 97 0.1 ENE 9 9 5 5 1024.3 1024.8 0.0
02/05:30am -1.1 -3.3 -1.7 96 0.2 CALM 0 0 0 0 1024.2 1024.7 0.0
02/05:00am -1.5 -3.8 -2.1 96 0.1 CALM 0 0 0 0 1024.2 1024.7 0.0
02/04:30am -1.8 -5.2 -2.4 96 0.1 NE 6 7 3 4 1024.2 1024.7 0.0
02/04:00am -1.6 -5.6 -2.3 95 0.2 E 9 9 5 5 1024.3 1024.8 0.0
02/03:30am -1.0 -4.3 -1.6 96 0.2 ENE 6 11 3 6 1024.7 1025.2 0.0
02/03:00am -0.6 -3.5 -1.2 96 0.2 ENE 4 6 2 3 1025.2 1025.7 0.0
02/02:30am -0.5 -2.6 -1.1 96 0.2 CALM 0 4 0 2 1025.3 1025.8 0.0
02/02:00am -0.3 -3.5 -0.7 97 0.1 ENE 6 7 3 4 1025.2 1025.7 0.0
02/01:30am -0.3 -3.5 -0.7 97 0.1 ENE 6 6 3 3 1025.5 1026.1 0.0
02/01:00am -0.4 -3.6 -0.8 97 0.1 ENE 6 7 3 4 1025.4 1025.9 0.0
02/12:30am -1.6 -5.2 -2.2 96 0.1 ENE 7 9 4 5 1025.7 1026.3 0.0
02/12:00am -2.1 -5.6 -2.8 95 0.1 ENE 6 7 3 4 1025.6 1026.2 0.0
 
Date/Time
EST
Temp
°C
App
Temp
°C
Dew
Point
Rel
Hum
%
Delta-T
°C
Wind Press
QNH
hPa
Press
MSL
hPa
Rain
since 9 am
mm
Dir
 
Spd
km/h
Gust
km/h
Spd
kts
Gust
kts
01/11:30pm -1.6 -5.0 -2.4 94 0.2 S 6 7 3 4 1025.8 1026.4 0.0
01/11:00pm -0.8 -4.7 -1.5 95 0.2 S 9 11 5 6 1026.0 1026.6 0.0
01/10:30pm 0.0 -3.8 -0.6 96 0.2 S 9 11 5 6 1026.2 1026.8 0.0
01/10:00pm -0.3 -3.6 -1.0 95 0.2 S 6 9 3 5 1026.5 1027.1 0.0
01/09:30pm -0.7 -4.6 -1.8 92 0.4 S 9 9 5 5 1026.3 1026.9 0.0
01/09:00pm 0.0 -2.1 -1.1 92 0.4 CALM 0 0 0 0 1026.3 1026.9 0.0
01/08:30pm 0.9 -1.1 -0.2 92 0.4 CALM 0 0 0 0 1026.2 1026.8 0.0
01/08:00pm 1.0 -1.1 -1.1 86 0.8 CALM 0 0 0 0 1026.0 1026.6 0.0
01/07:30pm 3.7 0.2 1.4 85 0.9 S 9 9 5 5 1026.2 1026.8 0.0
01/07:00pm 3.8 0.4 1.8 87 0.8 SSW 9 11 5 6 1026.3 1026.9 0.0
01/06:30pm 3.2 -0.7 0.9 85 0.9 SSW 11 13 6 7 1026.3 1026.9 0.0
01/06:00pm 3.7 -0.2 1.1 83 1.0 SSW 11 11 6 6 1025.9 1026.5 0.0
01/05:30pm 4.6 0.3 1.3 79 1.3 SW 13 15 7 8 1025.7 1026.3 0.0
01/05:00pm 6.7 2.6 2.0 72 1.9 SW 13 15 7 8 1025.6 1026.2 0.0
01/04:30pm 8.6 3.4 2.4 65 2.7 SW 19 22 10 12 1025.6 1026.2 0.0
01/04:00pm 8.8 4.0 2.4 64 2.7 SW 17 22 9 12 1025.4 1025.9 0.0
01/03:30pm 9.8 5.1 2.9 62 3.0 SW 17 20 9 11 1025.3 1025.8 0.0
01/03:00pm 10.2 5.4 2.8 60 3.2 SSW 17 24 9 13 1025.4 1025.9 0.0
01/02:30pm 9.9 4.7 2.5 60 3.2 SSW 19 30 10 16 1025.3 1025.8 0.0
01/02:00pm 9.6 5.1 2.2 60 3.2 S 15 20 8 11 1025.5 1026.1 0.0
01/01:30pm 9.5 4.7 2.8 63 2.9 S 17 24 9 13 1026.2 1026.8 0.0
01/01:00pm 9.0 4.2 2.8 65 2.7 SSW 17 28 9 15 1026.8 1027.4 0.0
01/12:30pm 9.4 4.2 2.3 61 3.1 SW 19 30 10 16 1027.6 1028.1 0.0
01/12:00pm 8.6 3.0 1.1 59 3.1 SSW 20 30 11 16 1027.7 1028.2 0.0
01/11:30am 8.3 3.7 1.7 63 2.8 SW 15 20 8 11 1028.1 1028.7 0.0
01/11:00am 8.4 3.8 3.5 71 2.1 SSW 17 26 9 14 1028.5 1029.1 0.0
01/10:30am 7.4 3.1 3.3 75 1.8 SW 15 22 8 12 1028.8 1029.4 0.0
01/10:00am 7.2 3.9 4.7 84 1.1 SW 11 15 6 8 1028.5 1029.1 0.0
01/09:30am 5.8 4.6 4.4 91 0.6 CALM 0 0 0 0 1028.4 1028.8 0.0
01/09:00am 3.9 1.8 3.8 99 0.0 NE 4 7 2 4 1028.2 1028.6 0.2
01/08:30am 1.8 0.1 1.7 99 0.0 CALM 0 0 0 0 1028.1 1028.5 0.2
01/08:00am -0.2 -2.6 -0.5 98 0.1 SW 2 7 1 4 1028.1 1028.5 0.2
01/07:30am -0.9 -4.8 -1.2 98 0.1 SSW 9 13 5 7 1028.1 1028.5 0.2
01/07:00am -1.2 -3.4 -1.6 97 0.1 CALM 0 6 0 3 1027.8 1028.2 0.2
01/06:30am -0.6 -4.8 -1.0 97 0.1 SW 11 13 6 7 1027.5 1027.9 0.2
01/06:00am 0.2 -4.3 -0.2 97 0.1 SW 13 15 7 8 1027.3 1027.7 0.2
01/05:30am 0.2 -1.9 -0.6 94 0.3 CALM 0 6 0 3 1026.8 1027.2 0.2
01/05:00am 1.8 -1.2 1.1 95 0.3 SSW 6 7 3 4 1026.9 1027.3 0.2
01/04:30am 1.8 -2.1 1.1 95 0.3 SW 11 13 6 7 1026.9 1027.3 0.2
01/04:00am 2.1 -1.5 0.3 88 0.7 SSW 9 11 5 6 1027.1 1027.4 0.2
01/03:30am 2.9 -0.3 0.6 85 0.9 SSW 7 11 4 6 1027.1 1027.4 0.2
01/03:00am 4.5 1.5 1.9 83 1.0 SSE 7 9 4 5 1027.1 1027.4 0.2
01/02:30am 5.4 2.1 2.4 81 1.2 S 9 13 5 7 1027.1 1027.4 0.2
01/02:00am 6.0 2.4 3.2 82 1.2 SE 11 13 6 7 1027.2 1027.6 0.2
01/01:30am 6.6 3.5 3.6 81 1.3 SSE 9 13 5 7 1027.3 1027.7 0.2
01/01:00am 5.9 2.4 3.6 85 1.0 S 11 11 6 6 1027.5 1027.9 0.2
01/12:30am 5.9 3.4 5.0 94 0.4 S 7 9 4 5 1027.3 1027.7 0.2
01/12:00am 5.8 2.9 4.9 94 0.4 S 9 11 5 6 1027.6 1028.0 0.2
 
Date/Time
EST
Temp
°C
App
Temp
°C
Dew
Point
Rel
Hum
%
Delta-T
°C
Wind Press
QNH
hPa
Press
MSL
hPa
Rain
since 9 am
mm
Dir
 
Spd
km/h
Gust
km/h
Spd
kts
Gust
kts
30/11:30pm 6.3 3.6 5.4 94 0.4 SSW 9 11 5 6 1027.9 1028.3 0.2
30/11:00pm 6.4 3.7 5.4 93 0.4 SSW 9 13 5 7 1028.1 1028.5 0.2
30/10:30pm 6.5 2.9 5.1 91 0.6 SSW 13 15 7 8 1028.2 1028.6 0.2

Other Formats:

Comma delimited format used in spreadsheet applications
http://www.bom.gov.au/fwo/IDN60801/IDN60801.95717.axf

JavaScript Object Notation format (JSON) in row-major order
http://www.bom.gov.au/fwo/IDN60801/IDN60801.95717.json